Time;durP1;ratioP1;P1;durP2;ratioP2;P2;SDS_P1;SDS_P2;PMS_P1;PMS_P2;Temp;Humidity;BMP_temperature;BMP_pressure;BME280_temperature;BME280_humidity;BME280_pressure;Samples;Min_cycle;Max_cycle;Signal;HPM_P1;HPM_P2
2022/04/11 00:01:21;;;;;;;8.00;4.35;;;;;;;1.37;84.29;93448.97;5144039;27;20015;-74
2022/04/11 00:03:47;;;;;;;9.90;5.25;;;;;;;1.39;84.42;93452.13;5144226;27;20318;-74
2022/04/11 00:06:13;;;;;;;9.20;4.50;;;;;;;1.46;83.99;93457.09;5125746;27;20050;-74
2022/04/11 00:08:38;;;;;;;9.43;5.22;;;;;;;1.44;83.57;93459.97;5143974;27;20210;-74
2022/04/11 00:11:04;;;;;;;10.70;4.30;;;;;;;1.48;83.26;93466.28;5143881;27;20026;-74
2022/04/11 00:13:30;;;;;;;5.85;3.30;;;;;;;1.52;81.99;93453.41;5144119;27;20056;-74
2022/04/11 00:15:55;;;;;;;6.72;4.30;;;;;;;1.60;82.58;93461.50;5143871;27;20023;-74
2022/04/11 00:18:21;;;;;;;8.57;4.90;;;;;;;1.59;81.46;93465.22;5143833;27;20026;-74
2022/04/11 00:20:50;;;;;;;8.55;4.40;;;;;;;1.67;80.02;93458.63;5144149;27;20019;-74
2022/04/11 00:23:15;;;;;;;6.03;3.72;;;;;;;1.75;79.54;93475.66;5143775;27;20251;-74
2022/04/11 00:25:41;;;;;;;10.00;4.10;;;;;;;1.83;78.96;93469.84;5143542;27;20039;-74
2022/04/11 00:28:07;;;;;;;6.07;3.40;;;;;;;1.83;78.22;93467.22;5143766;27;20182;-74
2022/04/11 00:30:32;;;;;;;6.22;3.75;;;;;;;1.85;78.95;93474.84;5143747;27;20019;-74
2022/04/11 00:32:58;;;;;;;8.50;4.10;;;;;;;1.84;79.33;93481.19;5143756;28;20130;-74
2022/04/11 00:35:23;;;;;;;8.23;3.53;;;;;;;1.83;79.01;93497.97;5143200;28;20046;-74
2022/04/11 00:37:49;;;;;;;5.93;3.50;;;;;;;1.87;78.81;93486.66;5143696;28;20090;-73
2022/04/11 00:40:15;;;;;;;4.60;2.90;;;;;;;1.91;77.49;93494.81;5143700;28;20094;-74
2022/04/11 00:43:02;;;;;;;8.15;3.42;;;;;;;1.96;77.76;93482.44;5143627;28;20214;-73
2022/04/11 00:45:28;;;;;;;7.13;3.20;;;;;;;1.96;77.29;93507.94;5143500;28;20023;-73
2022/04/11 00:47:53;;;;;;;7.43;3.67;;;;;;;1.96;77.38;93500.06;5143376;28;20029;-73
2022/04/11 00:50:19;;;;;;;8.90;3.35;;;;;;;1.96;75.38;93495.59;5143483;28;20022;-74
2022/04/11 00:52:48;;;;;;;7.68;3.60;;;;;;;2.00;76.74;93504.50;5143498;28;20031;-74
2022/04/11 00:55:17;;;;;;;6.95;4.00;;;;;;;2.09;74.60;93512.63;5143400;27;20031;-74
2022/04/11 00:57:43;;;;;;;5.10;2.97;;;;;;;2.10;73.94;93514.22;5147411;27;20064;-74
2022/04/11 01:00:10;;;;;;;4.45;2.70;;;;;;;2.14;74.73;93517.09;5147300;27;20023;-75
2022/04/11 01:02:36;;;;;;;8.43;3.35;;;;;;;2.17;74.40;93527.06;5147645;27;20026;-75
2022/04/11 01:05:05;;;;;;;6.22;3.08;;;;;;;2.19;74.87;93527.59;5147409;27;20370;-74
2022/04/11 01:07:30;;;;;;;7.55;3.10;;;;;;;2.16;74.09;93534.19;5147504;27;20061;-74
2022/04/11 01:09:56;;;;;;;4.30;2.55;;;;;;;2.17;74.77;93537.59;5147467;27;20019;-75
2022/04/11 01:12:22;;;;;;;5.88;3.20;;;;;;;2.25;74.32;93536.25;5147569;27;20035;-74
2022/04/11 01:14:47;;;;;;;6.78;2.72;;;;;;;2.24;74.22;93545.19;5147689;27;20072;-74
2022/04/11 01:17:13;;;;;;;9.07;3.90;;;;;;;2.27;73.83;93539.41;5147361;27;20221;-76
2022/04/11 01:19:39;;;;;;;8.90;3.53;;;;;;;2.31;74.51;93564.09;5128858;27;20026;-75
2022/04/11 01:22:04;;;;;;;4.05;2.50;;;;;;;2.27;74.61;93549.91;5147147;27;20030;-75
2022/04/11 01:24:31;;;;;;;7.15;3.08;;;;;;;2.28;72.65;93562.00;5147374;27;20019;-77
2022/04/11 01:26:56;;;;;;;4.97;2.72;;;;;;;2.30;72.95;93555.44;5147169;27;20026;-75
2022/04/11 01:29:22;;;;;;;5.88;2.55;;;;;;;2.33;73.76;93556.72;5147087;27;20059;-76
2022/04/11 01:31:47;;;;;;;5.63;3.20;;;;;;;2.32;73.51;93581.44;5147120;27;20190;-75
2022/04/11 01:34:14;;;;;;;5.28;2.88;;;;;;;2.35;73.64;93576.44;5146504;27;20083;-76
2022/04/11 01:36:39;;;;;;;7.80;3.33;;;;;;;2.32;72.64;93577.00;5146861;27;20023;-75
2022/04/11 01:39:05;;;;;;;5.32;2.72;;;;;;;2.36;71.63;93574.59;5147076;27;20026;-75
2022/04/11 01:41:30;;;;;;;5.68;3.17;;;;;;;2.36;71.70;93566.69;5146986;27;20098;-75
2022/04/11 01:43:56;;;;;;;4.63;2.50;;;;;;;2.35;71.48;93584.34;5146959;27;20007;-75
2022/04/11 01:46:21;;;;;;;7.25;2.67;;;;;;;2.40;71.43;93592.22;5146979;27;20046;-75
2022/04/11 01:48:47;;;;;;;4.40;2.63;;;;;;;2.33;71.90;93581.19;5146810;27;20232;-75
2022/04/11 01:51:13;;;;;;;6.20;2.50;;;;;;;2.37;71.71;93598.00;5128325;27;20046;-74
2022/04/11 01:53:39;;;;;;;10.27;2.90;;;;;;;2.40;71.09;93591.41;5146575;27;20035;-74
2022/04/11 01:56:05;;;;;;;15.10;3.28;;;;;;;2.38;70.59;93590.91;5146510;27;20041;-74
2022/04/11 01:58:31;;;;;;;9.77;2.85;;;;;;;2.45;71.20;93603.78;5146594;27;20041;-74
2022/04/11 02:00:58;;;;;;;7.85;3.13;;;;;;;2.44;71.24;93612.72;5128087;27;20325;-74
2022/04/11 02:03:25;;;;;;;8.75;2.85;;;;;;;2.44;70.43;93615.34;5146434;27;20011;-74
2022/04/11 02:05:50;;;;;;;7.85;2.78;;;;;;;2.45;70.36;93619.56;5146632;27;20037;-74
2022/04/11 02:08:16;;;;;;;7.13;2.95;;;;;;;2.40;70.55;93615.91;5146111;27;20014;-74
2022/04/11 02:10:41;;;;;;;5.95;3.05;;;;;;;2.50;70.55;93622.16;5127878;27;20217;-74
2022/04/11 02:13:07;;;;;;;6.10;2.75;;;;;;;2.52;70.60;93636.63;5146103;27;20291;-74
2022/04/11 02:15:33;;;;;;;7.05;2.78;;;;;;;2.52;70.37;93636.63;5146416;27;20325;-74
2022/04/11 02:17:58;;;;;;;5.30;2.67;;;;;;;2.49;70.90;93642.44;5146233;27;20078;-73
2022/04/11 02:20:24;;;;;;;6.85;3.05;;;;;;;2.50;71.37;93644.00;5145837;27;20057;-73
2022/04/11 02:22:55;;;;;;;5.72;2.70;;;;;;;2.44;70.45;93655.59;5146109;27;20034;-75
2022/04/11 02:25:29;;;;;;;4.53;2.35;;;;;;;2.47;71.47;93656.91;5146149;27;20030;-73
2022/04/11 02:27:57;;;;;;;7.63;2.75;;;;;;;2.41;71.36;93658.75;5146018;27;20027;-74
2022/04/11 02:30:23;;;;;;;5.38;2.63;;;;;;;2.44;71.32;93666.09;5146048;27;20019;-75
2022/04/11 02:32:49;;;;;;;10.30;3.40;;;;;;;2.45;71.51;93678.22;5146131;27;20019;-75
2022/04/11 02:35:16;;;;;;;3.95;2.38;;;;;;;2.43;71.41;93677.69;5145729;27;20287;-75
2022/04/11 02:37:44;;;;;;;4.90;3.10;;;;;;;2.41;72.99;93677.19;5145847;27;20026;-75
2022/04/11 02:40:10;;;;;;;9.95;2.58;;;;;;;2.36;72.78;93672.72;5145728;27;20019;-75
2022/04/11 02:42:36;;;;;;;7.05;2.33;;;;;;;2.32;72.10;93679.56;5145809;27;20022;-74
2022/04/11 02:45:02;;;;;;;7.75;3.47;;;;;;;2.25;73.51;93686.16;5145566;27;20213;-74
2022/04/11 02:47:28;;;;;;;6.47;2.80;;;;;;;2.22;73.74;93687.47;5145237;27;20107;-75
2022/04/11 02:49:53;;;;;;;5.85;2.90;;;;;;;2.17;74.22;93682.19;5145473;27;20011;-74
2022/04/11 02:52:19;;;;;;;7.35;2.90;;;;;;;2.10;75.46;93684.31;5145370;27;20048;-74
2022/04/11 02:54:44;;;;;;;5.80;3.15;;;;;;;2.02;75.31;93695.38;5145304;27;20250;-74
2022/04/11 02:57:10;;;;;;;6.38;2.63;;;;;;;1.95;75.77;93709.53;5145180;27;20031;-74
2022/04/11 02:59:35;;;;;;;7.22;2.92;;;;;;;1.97;75.96;93709.28;5145085;27;20015;-73
2022/04/11 03:02:02;;;;;;;4.20;2.83;;;;;;;1.94;76.51;93704.56;5145308;27;20091;-74
2022/04/11 03:04:28;;;;;;;9.10;3.20;;;;;;;1.83;76.83;93721.38;5145023;27;20026;-73
2022/04/11 03:06:55;;;;;;;6.20;3.13;;;;;;;1.85;77.84;93716.63;5145196;27;20237;-75
2022/04/11 03:09:21;;;;;;;9.65;3.35;;;;;;;1.85;78.55;93721.91;5145221;27;20022;-75
2022/04/11 03:11:46;;;;;;;9.77;4.03;;;;;;;1.87;78.11;93722.41;5145186;27;20019;-75
2022/04/11 03:14:12;;;;;;;6.00;3.75;;;;;;;1.85;78.14;93720.03;5144995;27;20086;-75
2022/04/11 03:16:37;;;;;;;9.07;3.60;;;;;;;1.79;78.24;93724.53;5144972;27;20019;-76
2022/04/11 03:19:03;;;;;;;11.63;3.25;;;;;;;1.73;77.67;93733.47;5144526;27;20019;-75
2022/04/11 03:21:29;;;;;;;7.85;3.30;;;;;;;1.83;78.09;93729.25;5144940;27;20045;-76
2022/04/11 03:23:54;;;;;;;5.13;2.92;;;;;;;1.84;77.31;93726.38;5144923;27;20083;-75
2022/04/11 03:26:20;;;;;;;5.45;3.25;;;;;;;1.75;77.71;93728.72;5145137;27;20321;-75
2022/04/11 03:28:45;;;;;;;8.52;3.22;;;;;;;1.83;77.68;93745.03;5144782;27;20248;-75
2022/04/11 03:31:11;;;;;;;5.38;3.13;;;;;;;1.84;76.45;93725.59;5144795;27;20031;-75
2022/04/11 03:33:36;;;;;;;7.10;2.85;;;;;;;1.80;76.32;93739.22;5126193;27;20049;-75
2022/04/11 03:36:03;;;;;;;7.25;3.72;;;;;;;1.84;75.98;93746.63;5144602;27;20090;-75
2022/04/11 03:38:28;;;;;;;7.95;3.55;;;;;;;1.86;75.98;93742.66;5126465;27;20270;-76
2022/04/11 03:40:53;;;;;;;6.30;3.60;;;;;;;1.88;74.98;93751.06;5144856;27;20090;-76
2022/04/11 03:43:19;;;;;;;10.02;3.78;;;;;;;1.94;74.49;93757.91;5144462;27;20117;-75
2022/04/11 03:45:44;;;;;;;9.57;3.10;;;;;;;2.01;73.31;93768.16;5144248;27;20050;-75
2022/04/11 03:48:10;;;;;;;5.95;2.97;;;;;;;2.03;73.35;93758.19;5144463;27;20225;-75
2022/04/11 03:50:36;;;;;;;7.97;3.10;;;;;;;2.03;73.04;93760.03;5144572;27;20019;-75
2022/04/11 03:53:01;;;;;;;8.68;3.10;;;;;;;2.06;72.76;93759.53;5144339;27;20243;-75
2022/04/11 03:55:27;;;;;;;10.68;3.03;;;;;;;2.13;73.67;93760.81;5144391;27;20027;-75
2022/04/11 03:57:52;;;;;;;6.57;2.63;;;;;;;2.09;72.17;93757.13;5144500;27;20090;-75
2022/04/11 04:00:18;;;;;;;7.20;3.33;;;;;;;2.14;73.54;93772.16;5144326;27;20228;-75
2022/04/11 04:02:46;;;;;;;8.32;2.90;;;;;;;2.12;72.80;93766.38;5144134;27;20020;-74
2022/04/11 04:05:11;;;;;;;4.03;2.85;;;;;;;2.16;72.49;93765.56;5144025;27;20018;-75
2022/04/11 04:07:37;;;;;;;3.97;2.75;;;;;;;2.18;71.41;93760.84;5144166;27;20190;-75
2022/04/11 04:10:04;;;;;;;7.20;3.55;;;;;;;2.14;71.08;93775.56;5144038;27;20007;-74
2022/04/11 04:12:29;;;;;;;5.63;3.08;;;;;;;2.14;71.31;93772.94;5144123;27;20343;-74
2022/04/11 04:14:55;;;;;;;6.80;2.88;;;;;;;2.13;70.84;93791.59;5143858;27;20031;-74
2022/04/11 04:17:20;;;;;;;3.58;2.33;;;;;;;2.13;70.93;93802.88;5144161;27;20040;-74
2022/04/11 04:19:46;;;;;;;7.30;3.10;;;;;;;2.09;70.37;93786.06;5143884;27;20073;-75
2022/04/11 04:22:11;;;;;;;11.85;3.50;;;;;;;2.10;71.20;93798.16;5143906;27;20068;-76
2022/04/11 04:24:37;;;;;;;5.38;3.13;;;;;;;2.18;71.18;93792.38;5143693;27;20214;-75
2022/04/11 04:27:06;;;;;;;7.43;3.55;;;;;;;2.17;71.08;93809.19;5143598;27;20094;-76
2022/04/11 04:29:31;;;;;;;6.57;3.40;;;;;;;2.20;70.93;93808.69;5125432;27;20056;-75
2022/04/11 04:31:57;;;;;;;4.30;3.00;;;;;;;2.24;70.74;93810.78;5143011;27;20309;-76
2022/04/11 04:34:25;;;;;;;6.72;3.15;;;;;;;2.23;70.25;93804.75;5143483;28;20039;-76
2022/04/11 04:36:50;;;;;;;8.70;3.38;;;;;;;2.18;70.42;93818.69;5143875;28;20021;-76
2022/04/11 04:39:16;;;;;;;11.00;2.92;;;;;;;2.20;71.15;93827.09;5143856;28;20043;-76
2022/04/11 04:41:41;;;;;;;6.63;4.00;;;;;;;2.21;70.26;93827.88;5143659;28;20348;-76
2022/04/11 04:44:07;;;;;;;5.50;2.92;;;;;;;2.22;69.70;93834.75;5143460;28;20086;-75
2022/04/11 04:46:33;;;;;;;11.52;3.78;;;;;;;2.23;69.39;93838.16;5143630;28;20278;-76
2022/04/11 04:48:59;;;;;;;5.32;2.90;;;;;;;2.19;68.55;93833.41;5143470;28;20049;-76
2022/04/11 04:51:24;;;;;;;7.78;3.42;;;;;;;2.27;69.25;93837.38;5143752;28;20026;-75
2022/04/11 04:53:50;;;;;;;6.25;2.92;;;;;;;2.23;68.99;93852.09;5143758;28;20019;-75
2022/04/11 04:56:16;;;;;;;5.53;3.20;;;;;;;2.24;68.67;93851.03;5143519;28;20094;-77
2022/04/11 04:58:41;;;;;;;5.68;3.17;;;;;;;2.27;68.58;93855.78;5143211;28;20011;-75
2022/04/11 05:01:07;;;;;;;4.53;2.72;;;;;;;2.32;68.41;93841.81;5143581;28;20011;-77
2022/04/11 05:03:32;;;;;;;11.57;3.35;;;;;;;2.35;68.60;93860.50;5143527;28;20027;-76
2022/04/11 05:05:58;;;;;;;6.95;3.35;;;;;;;2.42;69.55;93862.88;5143258;28;20251;-73
2022/04/11 05:08:23;;;;;;;10.18;3.40;;;;;;;2.45;69.22;93870.28;5143166;28;20019;-74
2022/04/11 05:10:49;;;;;;;5.28;2.97;;;;;;;2.42;67.69;93870.78;5143230;28;20117;-75
2022/04/11 05:13:14;;;;;;;18.05;3.47;;;;;;;2.43;67.71;93880.25;5143377;28;20038;-75
2022/04/11 05:15:42;;;;;;;4.28;2.83;;;;;;;2.44;68.39;93873.94;5143277;28;20019;-74
2022/04/11 05:18:08;;;;;;;6.05;3.00;;;;;;;2.44;68.50;93879.19;5143642;28;20102;-77
2022/04/11 05:20:34;;;;;;;8.38;3.45;;;;;;;2.47;68.19;93876.06;5143260;28;20022;-79
2022/04/11 05:23:00;;;;;;;7.38;3.40;;;;;;;2.53;67.57;93884.75;5143760;28;20019;-86
2022/04/11 05:25:26;;;;;;;6.30;3.22;;;;;;;2.56;67.71;93887.63;5143339;28;20086;-77
2022/04/11 05:27:52;;;;;;;5.78;3.20;;;;;;;2.58;68.54;93882.91;5143474;28;20023;-79
2022/04/11 05:30:17;;;;;;;8.35;3.80;;;;;;;2.56;66.14;93884.22;5143447;28;20337;-78
2022/04/11 05:32:43;;;;;;;6.15;3.85;;;;;;;2.60;67.60;93888.69;5143107;28;20064;-77
2022/04/11 05:35:09;;;;;;;11.20;4.93;;;;;;;2.66;67.84;93883.44;5143255;28;20361;-78
2022/04/11 05:37:35;;;;;;;6.22;2.70;;;;;;;2.67;66.35;93883.19;5143222;28;20442;-76
2022/04/11 05:40:01;;;;;;;4.85;3.17;;;;;;;2.75;67.32;93908.19;5143020;28;20023;-76
2022/04/11 05:42:26;;;;;;;5.72;3.15;;;;;;;2.73;66.32;93891.88;5144886;27;20015;-77
2022/04/11 05:44:52;;;;;;;5.30;2.80;;;;;;;2.73;66.46;93903.19;5128572;27;20320;-78
2022/04/11 05:47:17;;;;;;;8.40;3.55;;;;;;;2.75;67.26;93898.44;5147912;27;20050;-79
2022/04/11 05:49:43;;;;;;;6.15;3.53;;;;;;;2.71;65.62;93899.25;5146523;27;20206;-79
2022/04/11 05:52:08;;;;;;;9.75;3.90;;;;;;;2.72;65.81;93912.13;5146427;27;20030;-80
2022/04/11 05:54:38;;;;;;;8.75;3.83;;;;;;;2.74;66.70;93911.88;5146616;27;20063;-81
2022/04/11 05:57:04;;;;;;;7.03;3.88;;;;;;;2.76;66.39;93923.72;5146719;27;20034;-80
2022/04/11 05:59:30;;;;;;;9.35;3.95;;;;;;;2.88;66.25;93912.94;5146530;27;20023;-81
2022/04/11 06:01:55;;;;;;;8.05;3.50;;;;;;;2.80;65.33;93923.97;5146452;27;20086;-79
2022/04/11 06:04:21;;;;;;;10.40;3.03;;;;;;;2.66;64.18;93936.06;5145631;27;20019;-79
2022/04/11 06:06:46;;;;;;;7.22;3.53;;;;;;;2.70;64.65;93921.34;5145324;27;20046;-79
2022/04/11 06:09:12;;;;;;;5.80;3.63;;;;;;;2.74;65.32;93919.75;5146642;27;20023;-79
2022/04/11 06:11:37;;;;;;;4.72;2.85;;;;;;;2.73;64.16;93934.00;5128284;27;20057;-80
2022/04/11 06:14:03;;;;;;;8.75;3.53;;;;;;;2.73;64.02;93926.88;5146699;27;20023;-80
2022/04/11 06:16:29;;;;;;;6.30;3.40;;;;;;;2.75;64.11;93929.25;5146605;27;20019;-80
2022/04/11 06:18:54;;;;;;;7.03;3.72;;;;;;;2.76;63.92;93931.59;5146396;27;20022;-79
2022/04/11 06:21:20;;;;;;;6.55;3.42;;;;;;;2.81;64.28;93936.88;5127740;27;20105;-80
2022/04/11 06:23:45;;;;;;;6.18;3.35;;;;;;;2.74;64.65;93928.44;5146077;27;20313;-80
2022/04/11 06:26:11;;;;;;;8.45;3.53;;;;;;;2.83;66.18;93930.56;5127550;27;20051;-79
2022/04/11 06:28:36;;;;;;;7.55;3.97;;;;;;;2.72;64.14;93930.53;5145799;27;20023;-80
2022/04/11 06:31:02;;;;;;;5.78;3.10;;;;;;;2.68;64.05;93937.38;5145863;27;20035;-80
2022/04/11 06:33:27;;;;;;;7.18;3.67;;;;;;;2.79;64.88;93933.72;5145975;27;20038;-81
2022/04/11 06:35:53;;;;;;;8.43;3.40;;;;;;;2.80;64.51;93939.78;5127248;27;20065;-83
2022/04/11 06:38:18;;;;;;;7.18;3.80;;;;;;;2.90;66.45;93931.88;5145565;27;20363;-82
2022/04/11 06:40:44;;;;;;;5.47;3.45;;;;;;;2.94;65.30;93943.47;5145766;27;20097;-81
2022/04/11 06:43:09;;;;;;;7.53;3.80;;;;;;;2.99;64.65;93943.47;5145997;27;20023;-80
2022/04/11 06:45:34;;;;;;;8.27;3.72;;;;;;;3.03;65.37;93935.81;5145775;27;20376;-81
2022/04/11 06:48:00;;;;;;;6.53;3.83;;;;;;;3.11;64.95;93942.41;5145677;27;20247;-80
2022/04/11 06:50:25;;;;;;;7.75;4.53;;;;;;;3.28;64.49;93947.41;5145794;27;20019;-80
2022/04/11 06:52:51;;;;;;;6.72;3.60;;;;;;;3.21;63.75;93940.56;5145321;27;20023;-80
2022/04/11 06:55:16;;;;;;;6.22;3.65;;;;;;;3.37;64.24;93943.97;5144876;27;20042;-80
2022/04/11 06:57:41;;;;;;;11.82;3.90;;;;;;;3.46;63.53;93959.25;5145464;27;20022;-80
2022/04/11 07:00:07;;;;;;;8.13;3.40;;;;;;;3.44;62.32;93954.25;5145553;27;20018;-80
2022/04/11 07:02:33;;;;;;;7.55;3.40;;;;;;;3.39;61.81;93965.56;5145506;27;20225;-79
2022/04/11 07:04:58;;;;;;;7.60;4.05;;;;;;;3.38;61.59;93940.28;5145248;27;20038;-79
2022/04/11 07:07:24;;;;;;;6.18;3.80;;;;;;;3.44;62.51;93958.72;5145426;27;20018;-80
2022/04/11 07:09:49;;;;;;;8.82;3.40;;;;;;;3.64;63.42;93957.91;5145481;27;20023;-80
2022/04/11 07:12:15;;;;;;;7.05;3.47;;;;;;;3.84;63.13;93962.34;5145988;27;20045;-79
2022/04/11 07:14:40;;;;;;;5.72;3.33;;;;;;;3.88;59.75;93960.75;5145941;27;20064;-80
2022/04/11 07:17:06;;;;;;;7.53;3.55;;;;;;;3.89;58.70;93957.03;5145045;27;20031;-82
2022/04/11 07:19:31;;;;;;;7.95;4.05;;;;;;;3.98;60.71;93960.72;5144966;27;20213;-75
2022/04/11 07:21:57;;;;;;;7.13;3.35;;;;;;;4.28;60.23;93962.47;5145365;27;20060;-81
2022/04/11 07:24:23;;;;;;;6.40;3.70;;;;;;;4.36;58.88;93953.19;5144997;27;20262;-74
2022/04/11 07:26:48;;;;;;;10.00;3.53;;;;;;;4.33;58.26;93948.44;5144916;27;20567;-74
2022/04/11 07:29:14;;;;;;;6.38;3.33;;;;;;;4.43;56.97;93966.88;5144856;27;20023;-73
2022/04/11 07:31:39;;;;;;;5.53;2.92;;;;;;;4.44;57.40;93963.19;5144759;27;20271;-73
2022/04/11 07:34:05;;;;;;;9.27;3.25;;;;;;;4.51;57.10;93963.66;5144639;27;20214;-73
2022/04/11 07:36:30;;;;;;;7.38;3.15;;;;;;;4.51;54.99;93976.06;5144630;27;20023;-74
2022/04/11 07:38:56;;;;;;;7.65;3.15;;;;;;;4.63;57.83;93973.91;5144799;27;20034;-73
2022/04/11 07:41:22;;;;;;;6.20;2.95;;;;;;;4.67;56.07;93997.91;5144561;27;20023;-75
2022/04/11 07:43:48;;;;;;;10.00;3.10;;;;;;;4.69;54.86;93987.88;5144718;27;20056;-74
2022/04/11 07:46:13;;;;;;;8.05;3.15;;;;;;;4.75;55.45;93986.78;5144595;27;20022;-76
2022/04/11 07:48:39;;;;;;;7.32;3.15;;;;;;;4.86;56.41;93980.34;5144193;27;20369;-73
2022/04/11 07:51:05;;;;;;;7.63;3.50;;;;;;;4.93;55.55;94015.19;5144431;27;20033;-73
2022/04/11 07:53:30;;;;;;;8.90;3.30;;;;;;;4.87;54.87;93995.16;5144194;27;20313;-75
2022/04/11 07:55:56;;;;;;;9.25;3.25;;;;;;;5.03;54.52;94011.69;5144189;27;20119;-72
2022/04/11 07:58:21;;;;;;;6.70;3.00;;;;;;;5.19;54.87;94020.28;5144045;27;20095;-72
2022/04/11 08:00:52;;;;;;;6.47;3.03;;;;;;;5.30;54.64;94005.97;5144199;27;20270;-74
2022/04/11 08:03:18;;;;;;;6.72;3.25;;;;;;;5.32;53.40;94024.19;5144180;27;20090;-77
2022/04/11 08:05:44;;;;;;;8.77;3.30;;;;;;;5.28;53.30;94015.22;5144070;27;20041;-76
2022/04/11 08:08:09;;;;;;;12.40;3.40;;;;;;;5.18;53.37;94016.88;5144060;27;20027;-73
2022/04/11 08:10:35;;;;;;;8.25;3.60;;;;;;;5.14;54.81;94012.41;5144254;27;20321;-77
2022/04/11 08:13:01;;;;;;;6.03;2.92;;;;;;;5.17;53.68;94011.84;5143947;27;20035;-75
2022/04/11 08:15:29;;;;;;;7.80;3.78;;;;;;;5.17;53.43;94022.41;5126039;27;20033;-75
2022/04/11 08:17:56;;;;;;;7.95;3.33;;;;;;;5.39;54.56;94014.88;5144285;27;20026;-75
2022/04/11 08:20:22;;;;;;;7.13;3.15;;;;;;;5.31;52.91;94015.47;5143955;27;20023;-76
2022/04/11 08:22:47;;;;;;;6.15;2.95;;;;;;;5.38;53.67;94017.81;5144114;27;20019;-74
2022/04/11 08:25:14;;;;;;;5.95;3.05;;;;;;;5.42;53.11;94014.31;5143903;27;20336;-74
2022/04/11 08:27:40;;;;;;;10.93;3.13;;;;;;;5.51;52.36;94011.09;5143762;27;20050;-74
2022/04/11 08:30:06;;;;;;;16.33;2.72;;;;;;;5.55;52.16;94012.09;5143913;27;20042;-74
2022/04/11 08:32:43;;;;;;;8.25;3.55;;;;;;;5.76;54.67;94024.09;5143894;27;20090;-74
2022/04/11 08:35:10;;;;;;;8.35;2.75;;;;;;;5.89;52.68;94014.72;5143630;28;20313;-75
2022/04/11 08:37:40;;;;;;;7.40;3.10;;;;;;;5.83;51.88;94039.63;5143953;28;20084;-74
2022/04/11 08:40:08;;;;;;;10.05;3.10;;;;;;;5.70;51.72;94025.22;5143872;28;20320;-74
2022/04/11 08:42:33;;;;;;;10.20;3.35;;;;;;;5.81;51.62;94031.97;5143648;28;20046;-73
2022/04/11 08:45:00;;;;;;;8.30;2.70;;;;;;;5.89;50.61;94058.91;5143961;28;20309;-73
2022/04/11 08:47:26;;;;;;;12.48;3.63;;;;;;;5.83;51.79;94032.47;5125452;28;20030;-73
2022/04/11 08:49:53;;;;;;;5.13;2.63;;;;;;;5.74;50.53;94042.09;5143692;28;20027;-74
2022/04/11 08:52:20;;;;;;;6.25;3.30;;;;;;;5.80;49.85;94059.50;5143690;28;20022;-73
2022/04/11 08:54:46;;;;;;;5.75;2.83;;;;;;;5.85;49.64;94039.38;5143614;28;20031;-73
2022/04/11 08:57:11;;;;;;;11.50;3.33;;;;;;;5.93;50.16;94044.06;5143455;28;20022;-73
2022/04/11 08:59:37;;;;;;;4.45;2.05;;;;;;;5.95;47.42;94057.81;5143574;28;20027;-74
2022/04/11 09:02:08;;;;;;;7.65;2.38;;;;;;;5.93;50.04;94047.47;5143577;28;20124;-73
2022/04/11 09:04:50;;;;;;;5.00;2.90;;;;;;;6.05;48.89;94033.91;5143668;28;20030;-74
2022/04/11 09:07:16;;;;;;;4.75;2.90;;;;;;;6.04;50.36;94029.66;5143640;28;20274;-73
2022/04/11 09:09:42;;;;;;;9.18;3.58;;;;;;;6.15;49.55;94044.38;5125347;28;20026;-75
2022/04/11 09:12:15;;;;;;;7.55;2.67;;;;;;;6.00;46.95;94031.31;5143434;28;20026;-73
2022/04/11 09:14:42;;;;;;;9.40;2.97;;;;;;;6.01;48.52;94051.41;5143442;28;20031;-73
2022/04/11 09:17:11;;;;;;;8.10;3.67;;;;;;;6.06;50.21;94040.75;5144555;27;20030;-74
2022/04/11 09:19:38;;;;;;;6.75;2.90;;;;;;;5.98;50.40;94042.19;5147383;27;20225;-75
2022/04/11 09:22:05;;;;;;;6.65;3.10;;;;;;;5.89;48.62;94048.31;5147229;27;20023;-75
2022/04/11 09:24:31;;;;;;;8.02;2.80;;;;;;;5.84;47.21;94046.50;5147454;27;20034;-73
2022/04/11 09:26:57;;;;;;;8.88;2.92;;;;;;;5.90;48.49;94055.97;5147218;27;20066;-72
2022/04/11 09:29:24;;;;;;;11.05;2.70;;;;;;;5.90;47.71;94055.19;5147382;27;20035;-73
2022/04/11 09:31:51;;;;;;;6.32;3.15;;;;;;;5.75;47.77;94058.75;5147341;27;20054;-73
2022/04/11 09:34:25;;;;;;;6.50;3.05;;;;;;;5.80;48.93;94041.00;5146825;27;20070;-75
2022/04/11 09:36:53;;;;;;;9.55;2.63;;;;;;;5.79;48.79;94036.75;5147235;27;20022;-75
2022/04/11 09:39:22;;;;;;;6.72;2.85;;;;;;;5.98;47.58;94051.97;5146963;27;20023;-74
2022/04/11 09:41:49;;;;;;;4.35;2.60;;;;;;;6.03;47.55;94070.44;5147039;27;20387;-73
2022/04/11 09:44:28;;;;;;;7.25;2.83;;;;;;;6.15;47.55;94038.31;5146908;27;20223;-73
2022/04/11 09:46:55;;;;;;;3.97;2.33;;;;;;;6.19;46.12;94037.47;5146829;27;20027;-73
2022/04/11 09:49:21;;;;;;;5.30;2.60;;;;;;;6.37;47.92;94027.22;5146806;27;20064;-74
2022/04/11 09:52:13;;;;;;;6.25;2.97;;;;;;;6.54;46.88;94040.78;5146671;27;20028;-73
2022/04/11 09:54:44;;;;;;;6.20;2.88;;;;;;;6.52;45.35;94048.22;5146782;27;20015;-74
2022/04/11 09:57:11;;;;;;;6.22;2.40;;;;;;;6.52;45.53;94045.59;5146884;27;20034;-74
2022/04/11 09:59:39;;;;;;;6.53;2.55;;;;;;;6.60;45.98;94023.00;5146494;27;20015;-75
2022/04/11 10:02:06;;;;;;;4.35;2.15;;;;;;;6.82;44.32;94054.25;5146659;27;20015;-75
2022/04/11 10:04:32;;;;;;;3.20;1.70;;;;;;;6.78;43.82;94045.28;5146607;27;20030;-74
2022/04/11 10:06:58;;;;;;;7.65;2.72;;;;;;;6.68;43.09;94043.56;5146463;27;20023;-74
2022/04/11 10:09:24;;;;;;;5.07;2.00;;;;;;;6.67;41.71;94027.94;5146324;27;20060;-74
2022/04/11 10:11:52;;;;;;;5.70;2.47;;;;;;;6.56;43.74;94035.22;5146261;27;20027;-74
2022/04/11 10:14:28;;;;;;;5.45;2.72;;;;;;;6.56;45.28;94024.63;5145813;27;20061;-74
2022/04/11 10:17:00;;;;;;;5.53;2.45;;;;;;;6.67;45.03;94025.28;5145762;27;20054;-74
2022/04/11 10:19:31;;;;;;;5.00;2.70;;;;;;;6.86;45.35;94031.41;5145913;27;20027;-74
2022/04/11 10:22:13;;;;;;;5.28;2.47;;;;;;;7.03;44.03;94037.00;5145945;27;20132;-74
2022/04/11 10:24:48;;;;;;;5.70;2.67;;;;;;;6.87;46.06;94035.63;5146045;27;20036;-74
2022/04/11 10:27:22;;;;;;;3.75;2.70;;;;;;;6.86;45.44;94047.31;5145892;27;20198;-74
2022/04/11 10:29:52;;;;;;;2.72;2.00;;;;;;;6.82;44.57;94039.13;5145345;27;20198;-74
2022/04/11 10:32:25;;;;;;;4.85;2.35;;;;;;;6.66;45.99;94034.31;5145486;27;20046;-74
2022/04/11 10:35:03;;;;;;;7.05;2.75;;;;;;;6.54;44.71;94034.72;5145712;27;20327;-74
2022/04/11 10:37:51;;;;;;;11.32;2.63;;;;;;;6.50;44.68;94029.19;5145737;27;20029;-73
2022/04/11 10:40:16;;;;;;;6.93;2.70;;;;;;;6.66;46.21;94034.31;5127969;27;20011;-73
2022/04/11 10:43:08;;;;;;;5.55;2.30;;;;;;;6.73;44.25;94046.13;5145545;27;20030;-73
2022/04/11 10:45:40;;;;;;;9.63;2.40;;;;;;;6.95;43.29;94032.34;5145798;27;20209;-73
2022/04/11 10:48:07;;;;;;;3.58;2.28;;;;;;;7.13;43.87;94027.34;5127158;27;20023;-73
2022/04/11 10:50:36;;;;;;;6.88;2.40;;;;;;;7.25;42.01;94037.53;5145538;27;20090;-73
2022/04/11 10:53:24;;;;;;;6.00;2.10;;;;;;;7.28;42.01;94028.97;5145405;27;20217;-72
2022/04/11 10:55:54;;;;;;;6.55;2.42;;;;;;;7.40;41.77;94024.78;5145426;27;20047;-74
2022/04/11 10:58:22;;;;;;;4.43;2.30;;;;;;;7.48;41.83;94036.63;5145203;27;20015;-73
2022/04/11 11:00:48;;;;;;;4.97;2.60;;;;;;;7.53;42.76;94033.91;5145301;27;20023;-72
2022/04/11 11:03:14;;;;;;;3.80;2.03;;;;;;;7.51;41.99;94025.44;5145245;27;20023;-72
2022/04/11 11:05:43;;;;;;;6.22;2.60;;;;;;;7.42;41.60;94045.72;5145227;27;20027;-72
2022/04/11 11:08:11;;;;;;;5.00;2.28;;;;;;;7.29;42.56;94034.00;5145329;27;20023;-73
2022/04/11 11:10:49;;;;;;;8.00;2.10;;;;;;;7.38;41.42;94034.91;5145317;27;20027;-73
2022/04/11 11:13:41;;;;;;;7.68;1.98;;;;;;;7.48;41.77;94046.44;5144972;27;20041;-74
2022/04/11 11:16:06;;;;;;;6.15;2.58;;;;;;;7.44;39.96;94049.66;5145149;27;20031;-73
2022/04/11 11:18:47;;;;;;;4.45;2.28;;;;;;;7.46;41.42;94043.31;5144935;27;20059;-73
2022/04/11 11:21:16;;;;;;;4.90;2.30;;;;;;;7.63;40.21;94033.75;5145106;27;20038;-73
2022/04/11 11:24:02;;;;;;;4.63;2.15;;;;;;;7.85;39.76;94034.97;5126415;27;20031;-72
2022/04/11 11:26:37;;;;;;;6.05;2.88;;;;;;;7.64;40.89;94042.47;5144625;27;20031;-72
2022/04/11 11:29:16;;;;;;;4.38;2.15;;;;;;;7.47;41.03;94037.72;5144630;27;20023;-76
2022/04/11 11:31:43;;;;;;;4.03;2.40;;;;;;;7.49;40.17;94050.66;5144623;27;20314;-72
2022/04/11 11:34:11;;;;;;;4.75;2.40;;;;;;;7.61;40.54;94037.75;5144275;27;20047;-72
2022/04/11 11:36:38;;;;;;;2.70;1.95;;;;;;;7.80;40.16;94033.19;5144494;27;20022;-74
2022/04/11 11:39:18;;;;;;;4.28;2.10;;;;;;;7.86;38.84;94033.09;5144381;27;20007;-73
2022/04/11 11:41:47;;;;;;;2.55;1.63;;;;;;;7.57;38.14;94021.63;5125914;27;20026;-73